Time;durP1;ratioP1;P1;durP2;ratioP2;P2;SDS_P1;SDS_P2;PMS_P1;PMS_P2;Temp;Humidity;BMP_temperature;BMP_pressure;BME280_temperature;BME280_humidity;BME280_pressure;Samples;Min_cycle;Max_cycle;Signal;HPM_P1;HPM_P2
2023/03/10 00:01:24;;;;;;;59.28;21.08;;;0.20;99.90;;;;;;5047115;28;20051;-42
2023/03/10 00:03:50;;;;;;;72.35;22.38;;;-1.20;99.90;;;;;;5046672;28;20056;-42
2023/03/10 00:06:18;;;;;;;78.35;23.63;;;0.00;99.90;;;;;;5047157;28;20360;-44
2023/03/10 00:08:45;;;;;;;64.75;21.10;;;0.00;99.90;;;;;;5046904;28;20040;-43
2023/03/10 00:11:11;;;;;;;67.22;21.67;;;0.00;99.90;;;;;;5047483;28;20051;-43
2023/03/10 00:13:37;;;;;;;80.13;22.08;;;0.00;99.90;;;;;;5029035;28;20068;-43
2023/03/10 00:16:03;;;;;;;56.90;20.23;;;0.00;99.90;;;;;;5047355;28;20044;-41
2023/03/10 00:18:29;;;;;;;55.88;20.52;;;0.10;99.90;;;;;;5047122;28;20072;-41
2023/03/10 00:20:55;;;;;;;54.60;19.55;;;0.00;99.90;;;;;;5047390;28;20154;-42
2023/03/10 00:23:21;;;;;;;63.05;19.88;;;0.00;99.90;;;;;;5046961;28;20067;-42
2023/03/10 00:25:57;;;;;;;51.40;18.33;;;-0.10;99.90;;;;;;5046885;28;20371;-43
2023/03/10 00:28:24;;;;;;;74.60;21.42;;;-0.10;99.90;;;;;;5047100;28;20049;-41
2023/03/10 00:30:57;;;;;;;73.22;19.75;;;0.10;99.90;;;;;;5046877;28;20049;-41
2023/03/10 00:33:23;;;;;;;61.03;18.95;;;0.00;99.90;;;;;;5047179;28;20091;-41
2023/03/10 00:35:49;;;;;;;51.90;18.25;;;0.10;99.90;;;;;;5046507;28;20072;-41
2023/03/10 00:38:14;;;;;;;62.03;19.55;;;0.00;99.90;;;;;;5046732;28;20045;-41
2023/03/10 00:40:40;;;;;;;55.78;19.40;;;0.00;99.90;;;;;;5046968;28;20079;-41
2023/03/10 00:43:06;;;;;;;57.47;19.77;;;0.00;99.90;;;;;;5046253;28;20384;-42
2023/03/10 00:45:34;;;;;;;71.07;20.23;;;-0.10;99.90;;;;;;5045202;28;20474;-41
2023/03/10 00:48:00;;;;;;;58.03;19.55;;;0.10;99.90;;;;;;5046732;28;20064;-41
2023/03/10 00:50:25;;;;;;;69.93;19.05;;;0.00;99.90;;;;;;5046722;28;20396;-41
2023/03/10 00:52:52;;;;;;;75.45;20.27;;;0.00;99.90;;;;;;5046219;28;20108;-41
2023/03/10 00:55:18;;;;;;;52.42;18.48;;;0.00;99.90;;;;;;5028489;28;20457;-41
2023/03/10 00:57:44;;;;;;;50.92;19.42;;;0.70;99.90;;;;;;5046204;28;20049;-40
2023/03/10 01:00:10;;;;;;;49.35;18.30;;;0.00;99.90;;;;;;5046566;28;20045;-41
2023/03/10 01:02:36;;;;;;;53.60;19.30;;;0.10;99.90;;;;;;5046460;28;20048;-41
2023/03/10 01:05:02;;;;;;;52.83;18.60;;;0.00;99.90;;;;;;5046385;28;20460;-41
2023/03/10 01:07:27;;;;;;;77.57;20.55;;;0.00;99.90;;;;;;5046067;28;20049;-41
2023/03/10 01:09:53;;;;;;;78.90;21.05;;;0.00;99.90;;;;;;5045962;28;20407;-40
2023/03/10 01:12:18;;;;;;;65.82;20.30;;;0.00;99.90;;;;;;5046248;28;20103;-41
2023/03/10 01:14:44;;;;;;;69.20;20.92;;;0.00;99.90;;;;;;5045974;28;20041;-41
2023/03/10 01:17:10;;;;;;;57.47;20.50;;;0.00;99.90;;;;;;5045599;28;20037;-40
2023/03/10 01:19:35;;;;;;;59.03;20.02;;;0.00;99.90;;;;;;5045864;28;20052;-41
2023/03/10 01:22:01;;;;;;;58.03;21.17;;;0.00;99.90;;;;;;5046020;28;20041;-40
2023/03/10 01:24:27;;;;;;;45.72;19.70;;;0.00;99.90;;;;;;5046414;28;20049;-41
2023/03/10 01:26:52;;;;;;;59.13;21.60;;;0.10;99.90;;;;;;5046527;28;20051;-40
2023/03/10 01:29:18;;;;;;;63.10;21.70;;;0.00;99.90;;;;;;5046432;28;20099;-40
2023/03/10 01:31:43;;;;;;;68.35;22.35;;;0.00;99.90;;;;;;5045949;28;20099;-40
2023/03/10 01:34:09;;;;;;;64.85;22.45;;;0.00;99.90;;;;;;5045839;28;20060;-40
2023/03/10 01:36:35;;;;;;;75.38;22.95;;;-0.50;99.90;;;;;;5045737;28;20053;-40
2023/03/10 01:39:00;;;;;;;54.00;21.60;;;0.00;99.90;;;;;;5045652;28;20072;-40
2023/03/10 01:41:26;;;;;;;67.82;22.20;;;0.10;99.90;;;;;;5046013;28;20511;-40
2023/03/10 01:43:54;;;;;;;70.28;21.15;;;0.20;99.90;;;;;;5045724;28;20044;-40
2023/03/10 01:46:41;;;;;;;67.25;22.80;;;0.00;99.90;;;;;;5045026;28;20553;-40
2023/03/10 01:49:18;;;;;;;59.28;19.98;;;0.00;99.90;;;;;;5046107;28;20143;-40
2023/03/10 01:52:00;;;;;;;59.17;22.67;;;0.10;99.90;;;;;;5048957;28;20044;-40
2023/03/10 01:54:51;;;;;;;69.65;22.48;;;0.10;99.90;;;;;;5049704;28;20123;-40
2023/03/10 01:57:22;;;;;;;57.83;21.48;;;0.20;99.90;;;;;;5043674;28;20080;-40
2023/03/10 01:59:49;;;;;;;72.13;22.60;;;0.00;99.90;;;;;;5031148;28;20381;-40
2023/03/10 02:02:15;;;;;;;60.17;22.48;;;0.00;99.90;;;;;;5049223;28;20045;-40
2023/03/10 02:04:47;;;;;;;83.72;26.08;;;0.00;99.90;;;;;;5049405;28;20045;-39
2023/03/10 02:07:14;;;;;;;67.55;23.33;;;0.30;99.90;;;;;;5049653;28;20044;-40
2023/03/10 02:09:43;;;;;;;66.63;24.88;;;0.10;99.90;;;;;;5048915;28;20103;-40
2023/03/10 02:12:11;;;;;;;71.90;25.80;;;0.00;99.90;;;;;;5048874;28;20077;-40
2023/03/10 02:14:37;;;;;;;68.50;26.15;;;0.00;99.90;;;;;;5048634;28;20056;-40
2023/03/10 02:17:06;;;;;;;69.22;24.58;;;-0.10;99.90;;;;;;5048402;28;20044;-40
2023/03/10 02:19:59;;;;;;;71.43;27.13;;;0.10;99.90;;;;;;5049027;28;20033;-40
2023/03/10 02:22:25;;;;;;;98.65;29.20;;;0.10;99.90;;;;;;5030731;28;20329;-40
2023/03/10 02:24:57;;;;;;;83.95;28.95;;;0.10;99.90;;;;;;5049419;28;20140;-39
2023/03/10 02:27:30;;;;;;;79.83;29.00;;;0.00;99.90;;;;;;5049928;28;20046;-40
2023/03/10 02:29:59;;;;;;;66.82;28.10;;;0.10;99.90;;;;;;5049240;28;20072;-40
2023/03/10 02:32:28;;;;;;;101.57;30.98;;;0.00;99.90;;;;;;5049120;28;20095;-40
2023/03/10 02:34:53;;;;;;;80.45;28.40;;;0.10;99.90;;;;;;5048668;28;20107;-40
2023/03/10 02:37:32;;;;;;;92.15;29.10;;;0.00;99.90;;;;;;5047839;28;20052;-40
2023/03/10 02:39:59;;;;;;;80.82;27.80;;;0.00;99.90;;;;;;5047781;28;20060;-39
2023/03/10 02:42:29;;;;;;;91.88;28.55;;;0.00;99.90;;;;;;5047672;28;20103;-39
2023/03/10 02:44:55;;;;;;;89.22;26.75;;;0.00;99.90;;;;;;5047761;28;20119;-40
2023/03/10 02:47:21;;;;;;;85.90;26.90;;;0.00;99.90;;;;;;5047665;28;20041;-39
2023/03/10 02:49:47;;;;;;;72.47;24.90;;;0.00;99.90;;;;;;5047187;28;20489;-39
2023/03/10 02:52:35;;;;;;;71.35;24.30;;;-0.10;99.90;;;;;;5047404;28;20057;-40
2023/03/10 02:55:01;;;;;;;67.63;23.80;;;0.00;99.90;;;;;;5046942;28;20041;-39
2023/03/10 02:57:26;;;;;;;70.28;23.48;;;0.00;99.90;;;;;;5047209;28;20146;-39
2023/03/10 02:59:52;;;;;;;67.53;22.80;;;0.00;99.90;;;;;;5047275;28;20047;-39
2023/03/10 03:02:18;;;;;;;76.35;23.20;;;-0.10;99.90;;;;;;5046915;28;20049;-39
2023/03/10 03:04:43;;;;;;;74.85;23.05;;;-0.10;99.90;;;;;;5047729;28;20067;-39
2023/03/10 03:07:09;;;;;;;65.32;21.38;;;-0.10;99.90;;;;;;5047515;28;20048;-39
2023/03/10 03:09:35;;;;;;;70.72;22.73;;;-0.20;99.90;;;;;;5046079;28;20053;-39
2023/03/10 03:12:00;;;;;;;70.53;22.85;;;0.00;99.90;;;;;;5047416;28;20391;-39
2023/03/10 03:14:26;;;;;;;73.78;22.63;;;0.60;99.90;;;;;;5047452;28;20045;-39
2023/03/10 03:16:52;;;;;;;77.68;21.83;;;-0.20;99.90;;;;;;5047481;28;20545;-39
2023/03/10 03:19:17;;;;;;;93.97;22.38;;;0.00;99.90;;;;;;5047519;28;20040;-39
2023/03/10 03:21:48;;;;;;;68.72;21.23;;;-0.10;99.90;;;;;;5047203;28;20049;-39
2023/03/10 03:24:16;;;;;;;87.55;22.55;;;-0.10;99.90;;;;;;5046932;28;20471;-39
2023/03/10 03:26:42;;;;;;;85.88;21.65;;;-0.10;99.90;;;;;;5046838;28;20479;-39
2023/03/10 03:29:10;;;;;;;80.03;20.98;;;-0.10;99.90;;;;;;5047139;28;20053;-39
2023/03/10 03:31:37;;;;;;;84.47;22.05;;;0.00;99.90;;;;;;5047076;28;20506;-39
2023/03/10 03:34:03;;;;;;;63.65;18.85;;;-0.10;99.90;;;;;;5047105;28;20123;-39
2023/03/10 03:36:29;;;;;;;81.30;21.27;;;-0.10;99.90;;;;;;5009493;28;1081362;-39
2023/03/10 03:38:55;;;;;;;85.25;20.90;;;-0.10;99.90;;;;;;5047751;28;20053;-39
2023/03/10 03:41:20;;;;;;;78.25;20.13;;;-0.10;99.90;;;;;;5048722;28;20052;-39
2023/03/10 03:43:46;;;;;;;69.57;20.83;;;0.00;99.90;;;;;;5048348;28;20452;-39
2023/03/10 03:46:12;;;;;;;74.45;22.70;;;-0.10;99.90;;;;;;5048095;28;20570;-39
2023/03/10 03:48:37;;;;;;;80.05;20.92;;;0.00;99.90;;;;;;5048076;28;20045;-44
2023/03/10 03:51:03;;;;;;;75.22;20.33;;;0.10;99.90;;;;;;5047342;28;20044;-39
2023/03/10 03:53:29;;;;;;;96.40;20.88;;;-0.10;99.90;;;;;;5047997;28;20081;-39
2023/03/10 03:55:55;;;;;;;68.40;19.67;;;-0.20;99.90;;;;;;5047644;28;20553;-39
2023/03/10 03:58:21;;;;;;;64.75;18.70;;;-0.10;99.90;;;;;;5047168;28;20045;-39
2023/03/10 04:00:46;;;;;;;64.45;19.85;;;-0.10;99.90;;;;;;5048044;28;20095;-39
2023/03/10 04:03:12;;;;;;;58.50;18.42;;;0.00;99.90;;;;;;5047886;28;20033;-39
2023/03/10 04:05:38;;;;;;;58.35;16.58;;;0.80;99.90;;;;;;5048019;28;20045;-39
2023/03/10 04:08:04;;;;;;;66.63;18.83;;;-0.10;99.90;;;;;;5047821;28;20390;-39
2023/03/10 04:10:30;;;;;;;58.03;17.88;;;0.00;99.90;;;;;;5047802;28;20385;-39
2023/03/10 04:12:56;;;;;;;61.83;18.77;;;-0.10;99.90;;;;;;5047456;28;20048;-39
2023/03/10 04:15:21;;;;;;;53.75;19.20;;;-0.10;99.90;;;;;;5047526;28;20115;-39
2023/03/10 04:17:47;;;;;;;62.72;18.95;;;-0.10;99.90;;;;;;5047990;28;20045;-39
2023/03/10 04:20:13;;;;;;;81.43;19.30;;;-0.10;99.90;;;;;;5047570;28;20360;-39
2023/03/10 04:22:39;;;;;;;58.92;18.35;;;0.90;99.90;;;;;;5047978;28;20136;-40
2023/03/10 04:25:06;;;;;;;78.60;19.65;;;-0.10;99.90;;;;;;5047335;28;20471;-39
2023/03/10 04:27:32;;;;;;;68.15;18.98;;;-0.10;99.90;;;;;;5047841;28;20095;-39
2023/03/10 04:29:58;;;;;;;57.55;20.30;;;-0.10;99.90;;;;;;5047319;28;20051;-39
2023/03/10 04:32:24;;;;;;;67.45;18.98;;;-0.10;99.90;;;;;;5047318;28;20416;-39
2023/03/10 04:34:49;;;;;;;75.57;21.13;;;0.00;99.90;;;;;;5046775;28;20796;-40
2023/03/10 04:37:15;;;;;;;63.58;19.58;;;0.00;99.90;;;;;;5046581;28;20053;-39
2023/03/10 04:39:41;;;;;;;70.63;20.45;;;-0.10;99.90;;;;;;5046256;28;20804;-39
2023/03/10 04:42:07;;;;;;;66.97;18.90;;;-0.10;99.90;;;;;;5028409;28;20045;-39
2023/03/10 04:44:33;;;;;;;93.88;20.55;;;-0.10;99.90;;;;;;5047129;28;20099;-39
2023/03/10 04:46:59;;;;;;;69.38;20.42;;;-0.10;99.90;;;;;;5046929;28;20087;-39
2023/03/10 04:49:24;;;;;;;61.25;20.33;;;-0.10;99.90;;;;;;5046854;28;20047;-39
2023/03/10 04:51:50;;;;;;;79.97;21.60;;;-0.10;99.90;;;;;;5046942;28;20040;-39
2023/03/10 04:54:16;;;;;;;83.22;21.10;;;-0.10;99.90;;;;;;5046705;28;20037;-39
2023/03/10 04:56:41;;;;;;;87.85;23.45;;;-0.10;99.90;;;;;;5047096;28;20661;-39
2023/03/10 04:59:07;;;;;;;80.55;22.48;;;-0.10;99.90;;;;;;5046127;28;20148;-39
2023/03/10 05:01:33;;;;;;;88.32;23.70;;;0.10;99.90;;;;;;5045801;28;20487;-39
2023/03/10 05:04:04;;;;;;;99.00;23.00;;;0.00;99.90;;;;;;5027846;28;20127;-39
2023/03/10 05:06:30;;;;;;;87.32;23.88;;;0.00;99.90;;;;;;5045241;28;20040;-39
2023/03/10 05:08:56;;;;;;;129.60;24.35;;;0.00;99.90;;;;;;5046407;28;20124;-39
2023/03/10 05:11:22;;;;;;;127.40;24.40;;;0.00;99.90;;;;;;5046218;28;20124;-39
2023/03/10 05:13:49;;;;;;;120.35;25.42;;;-0.10;99.90;;;;;;5046344;28;20805;-40
2023/03/10 05:16:17;;;;;;;107.95;25.20;;;-0.10;99.90;;;;;;5028466;28;20068;-40
2023/03/10 05:18:43;;;;;;;119.00;27.98;;;0.00;99.90;;;;;;5046200;28;20041;-40
2023/03/10 05:21:09;;;;;;;104.25;27.75;;;-0.10;99.90;;;;;;5045594;28;20040;-40
2023/03/10 05:23:35;;;;;;;122.22;30.13;;;-0.10;99.90;;;;;;5046062;28;20052;-40
2023/03/10 05:26:03;;;;;;;109.55;29.23;;;-0.10;99.90;;;;;;5046141;28;20052;-39
2023/03/10 05:28:29;;;;;;;123.47;28.05;;;0.30;99.90;;;;;;5028282;28;20333;-39
2023/03/10 05:30:55;;;;;;;117.68;29.13;;;-0.10;99.90;;;;;;5046339;28;20487;-39
2023/03/10 05:33:21;;;;;;;125.30;30.15;;;-0.10;99.90;;;;;;5045961;28;20706;-40
2023/03/10 05:35:46;;;;;;;162.32;31.23;;;-0.10;99.90;;;;;;5045598;28;20040;-41
2023/03/10 05:38:12;;;;;;;139.70;31.80;;;-0.10;99.90;;;;;;5045924;28;20497;-40
2023/03/10 05:40:40;;;;;;;154.50;33.17;;;-0.10;99.90;;;;;;5046283;28;20088;-41
2023/03/10 05:43:06;;;;;;;131.52;33.42;;;-0.10;99.90;;;;;;5027800;28;20087;-42
2023/03/10 05:45:31;;;;;;;173.02;34.42;;;-0.10;99.90;;;;;;5045969;28;20048;-41
2023/03/10 05:47:57;;;;;;;157.82;33.42;;;0.60;99.90;;;;;;5046047;28;20052;-41
2023/03/10 05:50:23;;;;;;;200.98;36.45;;;-0.10;99.90;;;;;;5045656;28;20045;-42
2023/03/10 05:52:49;;;;;;;151.38;36.75;;;-0.10;99.90;;;;;;5046002;28;20730;-41
2023/03/10 05:55:18;;;;;;;228.75;38.22;;;-0.10;99.90;;;;;;5045214;28;20041;-55
2023/03/10 05:57:45;;;;;;;246.27;37.80;;;-0.10;99.90;;;;;;5045419;28;20669;-55
2023/03/10 06:00:13;;;;;;;206.15;36.00;;;1.10;99.90;;;;;;5046199;28;20403;-55
2023/03/10 06:02:38;;;;;;;197.65;37.60;;;-0.10;99.90;;;;;;5045794;28;20195;-56
2023/03/10 06:05:07;;;;;;;220.48;38.13;;;0.00;99.90;;;;;;5045927;28;20556;-55
2023/03/10 06:07:34;;;;;;;207.18;37.70;;;0.00;99.90;;;;;;5045890;28;20077;-55
2023/03/10 06:10:00;;;;;;;173.88;32.80;;;-0.10;99.90;;;;;;5045937;28;20079;-54
2023/03/10 06:12:25;;;;;;;194.63;37.67;;;0.00;99.90;;;;;;5045603;28;20128;-54
2023/03/10 06:14:51;;;;;;;182.40;37.22;;;0.00;99.90;;;;;;5045762;28;20513;-54
2023/03/10 06:17:17;;;;;;;189.25;36.08;;;-0.10;99.90;;;;;;5045816;28;20041;-54
2023/03/10 06:19:42;;;;;;;212.02;38.63;;;-0.10;99.90;;;;;;5046214;28;20033;-54
2023/03/10 06:22:08;;;;;;;178.00;37.72;;;0.00;99.90;;;;;;5046086;28;20052;-53
2023/03/10 06:24:34;;;;;;;208.10;38.83;;;-0.10;99.90;;;;;;5027582;28;20490;-52
2023/03/10 06:26:59;;;;;;;174.63;37.22;;;-0.10;99.90;;;;;;5045575;28;20053;-53
2023/03/10 06:29:25;;;;;;;162.05;38.38;;;-0.10;99.90;;;;;;5045131;28;20118;-53
2023/03/10 06:31:51;;;;;;;155.80;35.90;;;-0.20;99.90;;;;;;5045574;28;20079;-51
2023/03/10 06:34:17;;;;;;;176.23;38.30;;;-0.10;99.90;;;;;;5045593;28;20041;-53
2023/03/10 06:36:42;;;;;;;183.77;37.75;;;-0.10;99.90;;;;;;5046575;28;20057;-52
2023/03/10 06:39:08;;;;;;;138.95;32.83;;;-0.10;99.90;;;;;;5049499;28;20095;-51
2023/03/10 06:41:35;;;;;;;125.65;34.00;;;-0.20;99.90;;;;;;5049401;28;20044;-52
2023/03/10 06:44:01;;;;;;;141.05;35.08;;;-0.10;99.90;;;;;;5049763;28;20045;-54
2023/03/10 06:46:27;;;;;;;127.80;31.33;;;0.00;99.90;;;;;;5049542;28;20103;-51
2023/03/10 06:48:54;;;;;;;160.82;34.28;;;-0.10;99.90;;;;;;5049644;28;20080;-53
2023/03/10 06:51:21;;;;;;;109.22;31.25;;;-0.10;99.90;;;;;;5050382;28;20116;-53
2023/03/10 06:53:48;;;;;;;156.63;29.92;;;-0.10;99.90;;;;;;5049787;28;20041;-50
2023/03/10 06:56:14;;;;;;;113.13;29.90;;;0.00;99.90;;;;;;5049418;28;20495;-52
2023/03/10 06:58:41;;;;;;;127.97;29.05;;;-0.10;99.90;;;;;;5048900;28;20080;-53
2023/03/10 07:01:18;;;;;;;113.75;29.42;;;0.20;99.90;;;;;;5048991;28;20558;-51
2023/03/10 07:03:43;;;;;;;88.72;27.92;;;-0.10;99.90;;;;;;5049226;28;20041;-50
2023/03/10 07:06:09;;;;;;;110.53;28.45;;;-0.20;99.90;;;;;;5048686;28;20051;-51
2023/03/10 07:08:35;;;;;;;87.32;28.52;;;0.00;99.90;;;;;;5049244;28;20083;-50
2023/03/10 07:11:00;;;;;;;91.72;27.75;;;0.00;99.90;;;;;;5049156;28;20102;-50
2023/03/10 07:13:26;;;;;;;105.20;27.08;;;-0.10;99.90;;;;;;5048678;28;20574;-51
2023/03/10 07:15:52;;;;;;;115.30;30.10;;;1.00;99.90;;;;;;5048621;28;20459;-50
2023/03/10 07:18:18;;;;;;;110.65;30.38;;;0.00;99.90;;;;;;5048585;28;20371;-51
2023/03/10 07:20:44;;;;;;;93.00;28.38;;;0.00;99.90;;;;;;5048420;28;20624;-51
2023/03/10 07:23:10;;;;;;;126.40;28.58;;;0.00;99.90;;;;;;5049053;28;20124;-50
2023/03/10 07:25:37;;;;;;;84.45;26.00;;;0.00;99.90;;;;;;5048683;28;20519;-49
2023/03/10 07:28:04;;;;;;;91.35;27.95;;;0.00;99.90;;;;;;5048728;28;20127;-51
2023/03/10 07:30:31;;;;;;;102.80;28.10;;;0.00;99.90;;;;;;5063875;28;20394;-50
2023/03/10 07:32:57;;;;;;;96.30;28.05;;;0.00;99.90;;;;;;5048635;28;20048;-49
2023/03/10 07:35:22;;;;;;;92.68;26.15;;;0.00;99.90;;;;;;5048459;28;20040;-52
2023/03/10 07:37:48;;;;;;;107.40;27.08;;;0.00;99.90;;;;;;5046973;28;20056;-51
2023/03/10 07:40:14;;;;;;;103.82;27.55;;;0.70;99.90;;;;;;5046499;28;20590;-49
2023/03/10 07:42:42;;;;;;;105.13;28.25;;;0.00;99.90;;;;;;5047959;28;20040;-50
2023/03/10 07:45:08;;;;;;;101.65;26.40;;;0.00;99.90;;;;;;5048303;28;20053;-51
2023/03/10 07:47:34;;;;;;;99.57;24.40;;;0.10;99.90;;;;;;5046640;28;20071;-52
2023/03/10 07:49:59;;;;;;;88.00;26.83;;;0.00;99.90;;;;;;5047284;28;20040;-49
2023/03/10 07:52:27;;;;;;;89.95;25.92;;;0.00;99.90;;;;;;5047226;28;20453;-49
2023/03/10 07:54:53;;;;;;;105.88;26.77;;;;;;;;;;5046961;28;20037;-49
2023/03/10 07:57:19;;;;;;;105.00;27.13;;;0.10;99.90;;;;;;5047310;28;20041;-50
2023/03/10 07:59:45;;;;;;;97.30;26.00;;;0.10;99.90;;;;;;5046550;28;20056;-49
2023/03/10 08:02:12;;;;;;;82.57;25.50;;;0.10;99.90;;;;;;5047845;28;20045;-49
2023/03/10 08:04:39;;;;;;;106.07;26.65;;;0.10;99.90;;;;;;5047406;28;20538;-48
2023/03/10 08:07:05;;;;;;;95.35;25.92;;;0.10;99.90;;;;;;5047619;28;20044;-50
2023/03/10 08:09:31;;;;;;;94.18;25.10;;;0.10;99.90;;;;;;5047683;28;20033;-51
2023/03/10 08:11:57;;;;;;;83.60;27.02;;;1.10;99.90;;;;;;5047496;28;20056;-47
2023/03/10 08:14:23;;;;;;;91.28;25.17;;;0.10;99.90;;;;;;5048053;28;20553;-49
2023/03/10 08:16:50;;;;;;;88.32;24.85;;;-0.10;99.90;;;;;;5047720;28;20095;-48
2023/03/10 08:19:16;;;;;;;96.68;28.67;;;0.10;99.90;;;;;;5047715;28;20076;-48
2023/03/10 08:21:42;;;;;;;84.35;24.25;;;1.10;99.90;;;;;;5047516;28;20126;-47
2023/03/10 08:24:09;;;;;;;94.28;27.70;;;0.20;99.90;;;;;;5047676;28;20051;-48
2023/03/10 08:26:35;;;;;;;90.55;25.38;;;0.20;99.90;;;;;;5047516;28;20041;-48
2023/03/10 08:29:01;;;;;;;129.05;27.98;;;0.20;99.90;;;;;;5047822;28;20127;-48
2023/03/10 08:31:27;;;;;;;76.68;24.20;;;0.20;99.90;;;;;;5047987;28;20044;-48
2023/03/10 08:33:57;;;;;;;90.43;25.30;;;0.20;99.90;;;;;;5047623;28;20037;-48
2023/03/10 08:36:26;;;;;;;77.35;26.48;;;0.20;99.90;;;;;;5047838;28;20052;-49
2023/03/10 08:38:54;;;;;;;71.13;25.85;;;0.30;99.90;;;;;;5046962;28;20080;-47
2023/03/10 08:41:28;;;;;;;90.13;25.30;;;0.30;99.90;;;;;;5047386;28;20055;-50
2023/03/10 08:43:55;;;;;;;68.68;23.23;;;0.80;99.90;;;;;;5047291;28;20049;-47
2023/03/10 08:46:23;;;;;;;72.82;22.48;;;0.30;99.90;;;;;;5047334;28;20112;-48
2023/03/10 08:48:49;;;;;;;71.93;23.17;;;0.30;99.90;;;;;;5046904;28;20045;-49
2023/03/10 08:51:15;;;;;;;67.90;24.25;;;0.30;99.90;;;;;;5047033;28;20051;-48
2023/03/10 08:53:42;;;;;;;69.32;23.27;;;0.20;99.90;;;;;;5046424;28;20052;-48
2023/03/10 08:56:08;;;;;;;75.68;23.52;;;0.30;99.90;;;;;;5046939;28;20099;-50
2023/03/10 08:58:34;;;;;;;104.70;26.52;;;;;;;;;;5046698;28;20033;-48
2023/03/10 09:01:00;;;;;;;82.57;24.88;;;0.40;99.90;;;;;;5046527;28;20041;-48
2023/03/10 09:03:26;;;;;;;85.30;23.33;;;0.70;99.90;;;;;;5046819;28;20554;-48
2023/03/10 09:05:52;;;;;;;77.07;23.65;;;1.80;99.90;;;;;;5046532;28;20556;-49
2023/03/10 09:08:18;;;;;;;78.18;23.50;;;0.20;99.90;;;;;;5046439;28;20094;-47
2023/03/10 09:10:44;;;;;;;76.38;23.52;;;0.40;99.90;;;;;;5046805;28;20068;-47
2023/03/10 09:13:10;;;;;;;77.97;24.90;;;0.40;99.90;;;;;;5046947;28;20415;-47
2023/03/10 09:15:40;;;;;;;71.38;23.98;;;0.40;99.90;;;;;;5046859;28;20068;-48
2023/03/10 09:18:11;;;;;;;78.00;23.85;;;0.40;99.90;;;;;;5046714;28;20044;-48
2023/03/10 09:20:38;;;;;;;78.75;23.63;;;0.40;99.90;;;;;;5046891;28;20738;-47
2023/03/10 09:23:05;;;;;;;75.63;22.88;;;0.40;99.90;;;;;;5046019;28;20041;-47
2023/03/10 09:25:31;;;;;;;72.15;23.90;;;0.40;99.90;;;;;;5046135;28;20515;-49
2023/03/10 09:27:59;;;;;;;68.97;23.55;;;0.30;99.90;;;;;;5027657;28;20045;-50
2023/03/10 09:30:26;;;;;;;69.90;24.50;;;0.50;99.90;;;;;;5009357;28;20056;-48
2023/03/10 09:32:52;;;;;;;66.03;24.58;;;1.00;99.90;;;;;;5043458;28;20041;-47
2023/03/10 09:35:18;;;;;;;67.05;23.55;;;1.10;99.90;;;;;;5046684;28;20107;-47
2023/03/10 09:37:44;;;;;;;70.28;24.55;;;0.80;99.90;;;;;;5045970;28;20053;-49
2023/03/10 09:40:16;;;;;;;67.35;24.10;;;0.60;99.90;;;;;;5028831;28;20072;-47
2023/03/10 09:42:42;;;;;;;;;;;0.60;99.90;;;;;;5047527;28;20043;-47
2023/03/10 09:45:42;;;;;;;68.82;23.67;;;0.60;99.90;;;;;;5028583;28;19929;-48
2023/03/10 09:48:14;;;;;;;89.15;26.90;;;0.60;99.90;;;;;;5027975;28;20151;-47
2023/03/10 09:50:51;;;;;;;82.90;26.63;;;0.60;99.90;;;;;;5046366;28;20045;-48
2023/03/10 09:53:26;;;;;;;81.57;26.38;;;3.40;99.90;;;;;;5046334;28;20087;-48
2023/03/10 09:55:52;;;;;;;94.90;29.58;;;0.70;99.90;;;;;;5046284;28;20120;-47
2023/03/10 09:58:29;;;;;;;102.43;28.27;;;0.80;99.90;;;;;;5028504;28;20048;-47
2023/03/10 10:00:55;;;;;;;85.93;26.73;;;0.70;99.90;;;;;;5045930;28;20705;-47
2023/03/10 10:03:47;;;;;;;111.32;27.88;;;0.70;99.90;;;;;;5046581;28;20045;-46
2023/03/10 10:06:20;;;;;;;76.83;27.07;;;0.70;99.90;;;;;;5046338;28;20045;-47
2023/03/10 10:08:56;;;;;;;90.22;29.15;;;0.90;99.90;;;;;;5045939;28;20441;-46
2023/03/10 10:11:22;;;;;;;76.38;27.35;;;0.70;99.90;;;;;;5047106;28;20103;-47
2023/03/10 10:14:15;;;;;;;88.10;29.08;;;0.70;99.90;;;;;;5049684;28;20813;-47
2023/03/10 10:16:57;;;;;;;78.05;26.20;;;0.70;99.90;;;;;;5049870;28;20044;-46
2023/03/10 10:19:25;;;;;;;84.50;27.90;;;0.70;99.90;;;;;;5049519;28;20871;-47
2023/03/10 10:22:06;;;;;;;79.15;26.17;;;0.70;99.90;;;;;;5049576;28;20047;-47
2023/03/10 10:24:32;;;;;;;86.78;28.23;;;0.70;99.90;;;;;;5049336;28;20045;-46
2023/03/10 10:26:58;;;;;;;90.18;26.27;;;0.60;99.90;;;;;;5049258;28;20036;-46
2023/03/10 10:29:28;;;;;;;84.30;26.77;;;0.60;99.90;;;;;;5048938;28;20048;-46
2023/03/10 10:32:06;;;;;;;80.45;26.98;;;0.60;99.90;;;;;;5049284;28;20146;-46
2023/03/10 10:34:34;;;;;;;76.43;26.75;;;0.70;99.90;;;;;;5049215;28;20045;-46
2023/03/10 10:37:01;;;;;;;76.65;28.00;;;0.60;99.90;;;;;;5048455;28;20152;-46
2023/03/10 10:39:36;;;;;;;83.18;28.27;;;0.60;99.90;;;;;;5049179;28;20041;-47
2023/03/10 10:42:19;;;;;;;89.07;26.73;;;0.60;99.90;;;;;;5064194;28;20514;-46
2023/03/10 10:44:46;;;;;;;75.38;26.30;;;0.60;99.90;;;;;;5049749;28;20045;-46
2023/03/10 10:47:32;;;;;;;73.35;26.40;;;0.60;99.90;;;;;;5049654;28;20072;-46
2023/03/10 10:50:16;;;;;;;84.63;27.42;;;0.70;99.90;;;;;;5049497;28;20041;-46
2023/03/10 10:52:47;;;;;;;87.60;27.58;;;0.70;99.90;;;;;;5049180;28;20045;-46
2023/03/10 10:55:40;;;;;;;72.60;27.00;;;0.70;99.90;;;;;;5030539;28;20045;-46
2023/03/10 10:58:22;;;;;;;;;;;0.80;99.90;;;;;;5037573;28;20085;-46
2023/03/10 11:00:57;;;;;;;77.90;25.90;;;0.80;99.90;;;;;;5048585;28;20394;-46
2023/03/10 11:03:27;;;;;;;87.75;26.98;;;0.80;99.90;;;;;;5049483;28;20455;-47
2023/03/10 11:05:53;;;;;;;86.03;27.02;;;0.80;99.90;;;;;;5049119;28;20041;-46
2023/03/10 11:08:38;;;;;;;84.80;26.52;;;0.90;99.90;;;;;;5048146;28;20033;-45
2023/03/10 11:11:19;;;;;;;89.82;26.85;;;0.90;99.90;;;;;;5047701;28;20049;-46
2023/03/10 11:13:54;;;;;;;74.50;26.48;;;0.90;99.90;;;;;;5047070;28;20491;-46
2023/03/10 11:16:29;;;;;;;70.57;25.63;;;1.30;99.90;;;;;;5047482;28;20075;-45
2023/03/10 11:19:01;;;;;;;73.53;24.58;;;0.90;99.90;;;;;;5047624;28;20040;-45
2023/03/10 11:21:33;;;;;;;100.32;27.45;;;0.90;99.90;;;;;;5047645;28;20049;-45
2023/03/10 11:24:23;;;;;;;82.10;28.30;;;2.30;99.90;;;;;;5046941;28;20060;-45
2023/03/10 11:27:16;;;;;;;68.10;24.95;;;0.90;99.90;;;;;;5047790;28;20727;-45
2023/03/10 11:30:06;;;;;;;67.07;24.50;;;0.90;99.90;;;;;;5047728;28;20049;-45
2023/03/10 11:32:56;;;;;;;75.15;25.88;;;0.90;99.90;;;;;;5047452;28;20041;-45
2023/03/10 11:35:44;;;;;;;60.00;23.88;;;0.90;99.90;;;;;;5047307;28;20041;-44
2023/03/10 11:38:21;;;;;;;61.38;24.45;;;0.90;99.90;;;;;;5047007;28;20121;-45
2023/03/10 11:40:55;;;;;;;78.15;25.27;;;0.90;99.90;;;;;;5047400;28;20617;-45
2023/03/10 11:44:05;;;;;;;65.97;23.83;;;0.90;99.90;;;;;;5047145;28;20070;-45
2023/03/10 11:46:38;;;;;;;61.33;24.02;;;0.80;99.90;;;;;;5030827;28;20048;-45
2023/03/10 11:49:08;;;;;;;;;;;0.80;99.90;;;;;;5047894;28;20044;-45
2023/03/10 11:51:38;;;;;;;61.67;23.80;;;0.80;99.90;;;;;;5047035;28;19924;-46
2023/03/10 11:54:32;;;;;;;75.03;23.50;;;1.10;99.90;;;;;;5046642;28;20047;-43
2023/03/10 11:57:01;;;;;;;63.75;24.70;;;0.80;99.90;;;;;;5047217;28;20052;-44
2023/03/10 11:59:29;;;;;;;68.55;24.52;;;0.80;99.90;;;;;;5046441;28;20091;-43
2023/03/10 12:02:29;;;;;;;111.38;26.48;;;0.80;99.90;;;;;;5046421;28;20083;-43
2023/03/10 12:05:00;;;;;;;78.40;25.05;;;2.80;99.90;;;;;;5043803;28;20064;-44
2023/03/10 12:07:45;;;;;;;90.75;28.08;;;0.80;99.90;;;;;;5046265;28;20060;-44
2023/03/10 12:10:11;;;;;;;95.13;24.70;;;0.90;99.90;;;;;;5046990;28;20044;-45
2023/03/10 12:12:44;;;;;;;69.78;25.35;;;1.00;99.90;;;;;;5047082;28;20546;-44
2023/03/10 12:15:27;;;;;;;93.78;25.33;;;2.50;99.90;;;;;;5046719;28;20033;-44
2023/03/10 12:17:53;;;;;;;69.28;25.17;;;0.90;99.90;;;;;;5028520;28;20041;-44
2023/03/10 12:20:19;;;;;;;92.57;24.80;;;1.40;99.90;;;;;;5046411;28;20044;-44
2023/03/10 12:22:49;;;;;;;92.40;26.98;;;1.30;99.90;;;;;;5046821;28;20422;-44
2023/03/10 12:25:31;;;;;;;82.53;26.00;;;3.40;99.90;;;;;;5046339;28;20083;-43
2023/03/10 12:28:15;;;;;;;75.53;24.85;;;0.80;99.90;;;;;;5047055;28;20041;-44
2023/03/10 12:30:50;;;;;;;78.95;23.38;;;0.80;99.90;;;;;;5061699;28;20037;-44
2023/03/10 12:33:36;;;;;;;80.45;25.60;;;0.90;99.90;;;;;;5046256;28;20505;-45
2023/03/10 12:36:20;;;;;;;118.30;27.13;;;0.90;99.90;;;;;;5046715;28;20392;-44
2023/03/10 12:38:50;;;;;;;102.30;28.10;;;0.90;99.90;;;;;;5046775;28;20454;-44
2023/03/10 12:41:25;;;;;;;80.78;24.45;;;0.90;99.90;;;;;;5047298;28;20600;-44
2023/03/10 12:44:19;;;;;;;90.70;27.42;;;0.90;99.90;;;;;;5047053;28;20069;-43